sensor_id;sensor_type;location;lat;lon;timestamp;P1;durP1;ratioP1;P2;durP2;ratioP2
44862;SDS011;30597;49.628;10.850;2023-04-07T00:00:52;2.50;;;1.90;;
44862;SDS011;30597;49.628;10.850;2023-04-07T00:03:18;1.60;;;1.50;;
44862;SDS011;30597;49.628;10.850;2023-04-07T00:05:43;2.10;;;1.90;;
44862;SDS011;30597;49.628;10.850;2023-04-07T00:08:09;1.70;;;1.60;;
44862;SDS011;30597;49.628;10.850;2023-04-07T00:10:34;1.90;;;1.80;;
44862;SDS011;30597;49.628;10.850;2023-04-07T00:13:00;2.03;;;1.80;;
44862;SDS011;30597;49.628;10.850;2023-04-07T00:15:26;1.83;;;1.60;;
44862;SDS011;30597;49.628;10.850;2023-04-07T00:17:52;2.20;;;1.70;;
44862;SDS011;30597;49.628;10.850;2023-04-07T00:20:17;2.33;;;2.13;;
44862;SDS011;30597;49.628;10.850;2023-04-07T00:22:43;2.07;;;1.77;;
44862;SDS011;30597;49.628;10.850;2023-04-07T00:25:09;1.80;;;1.70;;
44862;SDS011;30597;49.628;10.850;2023-04-07T00:27:34;3.07;;;2.00;;
44862;SDS011;30597;49.628;10.850;2023-04-07T00:30:00;3.00;;;1.90;;
44862;SDS011;30597;49.628;10.850;2023-04-07T00:32:26;2.07;;;1.50;;
44862;SDS011;30597;49.628;10.850;2023-04-07T00:34:51;4.43;;;1.73;;
44862;SDS011;30597;49.628;10.850;2023-04-07T00:37:17;2.10;;;1.63;;
44862;SDS011;30597;49.628;10.850;2023-04-07T00:39:43;3.50;;;1.80;;
44862;SDS011;30597;49.628;10.850;2023-04-07T00:42:09;1.80;;;1.70;;
44862;SDS011;30597;49.628;10.850;2023-04-07T00:44:35;3.50;;;1.93;;
44862;SDS011;30597;49.628;10.850;2023-04-07T00:47:01;1.80;;;1.70;;
44862;SDS011;30597;49.628;10.850;2023-04-07T00:49:26;2.90;;;1.60;;
44862;SDS011;30597;49.628;10.850;2023-04-07T00:51:53;2.10;;;1.90;;
44862;SDS011;30597;49.628;10.850;2023-04-07T00:54:22;1.70;;;1.60;;
44862;SDS011;30597;49.628;10.850;2023-04-07T00:56:48;1.90;;;1.80;;
44862;SDS011;30597;49.628;10.850;2023-04-07T00:59:13;2.20;;;1.87;;
44862;SDS011;30597;49.628;10.850;2023-04-07T01:02:02;2.23;;;1.80;;
44862;SDS011;30597;49.628;10.850;2023-04-07T01:04:38;2.90;;;1.70;;
44862;SDS011;30597;49.628;10.850;2023-04-07T01:07:22;2.30;;;1.50;;
44862;SDS011;30597;49.628;10.850;2023-04-07T01:09:57;4.23;;;2.20;;
44862;SDS011;30597;49.628;10.850;2023-04-07T01:15:29;3.83;;;2.30;;
44862;SDS011;30597;49.628;10.850;2023-04-07T01:17:58;2.10;;;1.30;;
44862;SDS011;30597;49.628;10.850;2023-04-07T01:20:31;3.30;;;1.43;;
44862;SDS011;30597;49.628;10.850;2023-04-07T01:23:01;3.30;;;2.13;;
44862;SDS011;30597;49.628;10.850;2023-04-07T01:31:04;3.10;;;1.80;;
44862;SDS011;30597;49.628;10.850;2023-04-07T01:33:32;2.17;;;1.90;;
44862;SDS011;30597;49.628;10.850;2023-04-07T01:36:00;2.30;;;1.80;;
44862;SDS011;30597;49.628;10.850;2023-04-07T01:38:27;1.63;;;1.40;;
44862;SDS011;30597;49.628;10.850;2023-04-07T01:40:54;8.60;;;1.77;;
44862;SDS011;30597;49.628;10.850;2023-04-07T01:43:21;4.10;;;1.70;;
44862;SDS011;30597;49.628;10.850;2023-04-07T01:45:48;1.50;;;1.40;;
44862;SDS011;30597;49.628;10.850;2023-04-07T01:48:15;2.27;;;1.80;;
44862;SDS011;30597;49.628;10.850;2023-04-07T01:50:42;2.10;;;1.60;;
44862;SDS011;30597;49.628;10.850;2023-04-07T01:53:08;1.80;;;1.50;;
44862;SDS011;30597;49.628;10.850;2023-04-07T01:55:35;4.53;;;1.63;;
44862;SDS011;30597;49.628;10.850;2023-04-07T01:58:05;2.53;;;1.80;;
44862;SDS011;30597;49.628;10.850;2023-04-07T02:00:31;2.13;;;1.50;;
44862;SDS011;30597;49.628;10.850;2023-04-07T02:02:58;2.97;;;2.67;;
44862;SDS011;30597;49.628;10.850;2023-04-07T02:05:34;1.63;;;1.43;;
44862;SDS011;30597;49.628;10.850;2023-04-07T02:08:03;1.90;;;1.70;;
44862;SDS011;30597;49.628;10.850;2023-04-07T02:10:32;1.90;;;1.60;;
44862;SDS011;30597;49.628;10.850;2023-04-07T02:13:00;2.47;;;1.50;;
44862;SDS011;30597;49.628;10.850;2023-04-07T02:15:29;1.83;;;1.60;;
44862;SDS011;30597;49.628;10.850;2023-04-07T02:17:56;1.60;;;1.37;;
44862;SDS011;30597;49.628;10.850;2023-04-07T02:20:23;1.60;;;1.50;;
44862;SDS011;30597;49.628;10.850;2023-04-07T02:22:49;1.30;;;1.13;;
44862;SDS011;30597;49.628;10.850;2023-04-07T02:25:22;2.63;;;2.07;;
44862;SDS011;30597;49.628;10.850;2023-04-07T02:27:49;1.60;;;1.37;;
44862;SDS011;30597;49.628;10.850;2023-04-07T02:30:15;2.07;;;1.53;;
44862;SDS011;30597;49.628;10.850;2023-04-07T02:32:40;3.10;;;1.87;;
44862;SDS011;30597;49.628;10.850;2023-04-07T02:35:06;2.20;;;1.47;;
44862;SDS011;30597;49.628;10.850;2023-04-07T02:37:32;1.87;;;1.67;;
44862;SDS011;30597;49.628;10.850;2023-04-07T02:39:57;3.07;;;1.77;;
44862;SDS011;30597;49.628;10.850;2023-04-07T02:42:23;3.50;;;1.63;;
44862;SDS011;30597;49.628;10.850;2023-04-07T02:44:49;2.23;;;1.70;;
44862;SDS011;30597;49.628;10.850;2023-04-07T02:47:14;2.60;;;1.80;;
44862;SDS011;30597;49.628;10.850;2023-04-07T02:49:41;2.50;;;1.83;;
44862;SDS011;30597;49.628;10.850;2023-04-07T02:52:06;1.97;;;1.67;;
44862;SDS011;30597;49.628;10.850;2023-04-07T02:54:32;2.10;;;1.50;;
44862;SDS011;30597;49.628;10.850;2023-04-07T02:56:57;1.40;;;1.30;;
44862;SDS011;30597;49.628;10.850;2023-04-07T02:59:23;1.73;;;1.50;;
44862;SDS011;30597;49.628;10.850;2023-04-07T03:01:48;1.60;;;1.50;;
44862;SDS011;30597;49.628;10.850;2023-04-07T03:04:14;1.50;;;1.40;;
44862;SDS011;30597;49.628;10.850;2023-04-07T03:06:40;2.23;;;2.03;;
44862;SDS011;30597;49.628;10.850;2023-04-07T03:09:05;2.33;;;1.40;;
44862;SDS011;30597;49.628;10.850;2023-04-07T03:11:31;1.93;;;1.47;;
44862;SDS011;30597;49.628;10.850;2023-04-07T03:13:57;1.63;;;1.53;;
44862;SDS011;30597;49.628;10.850;2023-04-07T03:16:22;1.77;;;1.20;;
44862;SDS011;30597;49.628;10.850;2023-04-07T03:18:48;1.47;;;1.37;;
44862;SDS011;30597;49.628;10.850;2023-04-07T03:21:13;1.27;;;1.17;;
44862;SDS011;30597;49.628;10.850;2023-04-07T03:23:39;1.30;;;1.20;;
44862;SDS011;30597;49.628;10.850;2023-04-07T03:26:05;1.63;;;1.53;;
44862;SDS011;30597;49.628;10.850;2023-04-07T03:28:30;1.57;;;1.47;;
44862;SDS011;30597;49.628;10.850;2023-04-07T03:30:56;1.20;;;1.10;;
44862;SDS011;30597;49.628;10.850;2023-04-07T03:33:21;1.37;;;1.27;;
44862;SDS011;30597;49.628;10.850;2023-04-07T03:35:47;3.17;;;1.50;;
44862;SDS011;30597;49.628;10.850;2023-04-07T03:38:12;1.50;;;1.27;;
44862;SDS011;30597;49.628;10.850;2023-04-07T03:40:38;1.73;;;1.30;;
44862;SDS011;30597;49.628;10.850;2023-04-07T03:43:04;1.47;;;1.23;;
44862;SDS011;30597;49.628;10.850;2023-04-07T03:45:29;2.90;;;1.20;;
44862;SDS011;30597;49.628;10.850;2023-04-07T03:47:57;2.20;;;1.30;;
44862;SDS011;30597;49.628;10.850;2023-04-07T03:50:22;1.97;;;1.77;;
44862;SDS011;30597;49.628;10.850;2023-04-07T03:52:48;1.83;;;1.40;;
44862;SDS011;30597;49.628;10.850;2023-04-07T03:55:13;1.80;;;1.70;;
44862;SDS011;30597;49.628;10.850;2023-04-07T03:57:39;2.27;;;1.50;;
44862;SDS011;30597;49.628;10.850;2023-04-07T04:00:05;3.50;;;1.30;;
44862;SDS011;30597;49.628;10.850;2023-04-07T04:02:31;1.80;;;1.70;;
44862;SDS011;30597;49.628;10.850;2023-04-07T04:04:57;1.50;;;1.40;;
44862;SDS011;30597;49.628;10.850;2023-04-07T04:07:22;1.40;;;1.30;;
44862;SDS011;30597;49.628;10.850;2023-04-07T04:09:48;1.73;;;1.30;;
44862;SDS011;30597;49.628;10.850;2023-04-07T04:12:13;1.40;;;1.30;;
44862;SDS011;30597;49.628;10.850;2023-04-07T04:14:39;2.07;;;1.40;;
44862;SDS011;30597;49.628;10.850;2023-04-07T04:17:05;1.63;;;1.43;;
44862;SDS011;30597;49.628;10.850;2023-04-07T04:19:30;1.97;;;1.77;;
44862;SDS011;30597;49.628;10.850;2023-04-07T04:21:56;1.30;;;1.20;;
44862;SDS011;30597;49.628;10.850;2023-04-07T04:24:21;1.33;;;1.20;;
44862;SDS011;30597;49.628;10.850;2023-04-07T04:26:47;1.73;;;1.53;;
44862;SDS011;30597;49.628;10.850;2023-04-07T04:29:12;1.50;;;1.40;;
44862;SDS011;30597;49.628;10.850;2023-04-07T04:31:38;1.67;;;1.47;;
44862;SDS011;30597;49.628;10.850;2023-04-07T04:34:03;1.93;;;1.60;;
44862;SDS011;30597;49.628;10.850;2023-04-07T04:36:29;1.33;;;1.23;;
44862;SDS011;30597;49.628;10.850;2023-04-07T04:38:55;1.30;;;1.20;;
44862;SDS011;30597;49.628;10.850;2023-04-07T04:41:20;1.53;;;1.43;;
44862;SDS011;30597;49.628;10.850;2023-04-07T04:43:46;1.50;;;1.40;;
44862;SDS011;30597;49.628;10.850;2023-04-07T04:46:12;1.43;;;1.33;;
44862;SDS011;30597;49.628;10.850;2023-04-07T04:48:37;2.47;;;1.10;;
44862;SDS011;30597;49.628;10.850;2023-04-07T04:51:03;1.10;;;1.00;;
44862;SDS011;30597;49.628;10.850;2023-04-07T04:53:28;2.40;;;1.63;;
44862;SDS011;30597;49.628;10.850;2023-04-07T04:55:54;1.50;;;1.40;;
44862;SDS011;30597;49.628;10.850;2023-04-07T04:58:20;2.00;;;1.40;;
44862;SDS011;30597;49.628;10.850;2023-04-07T05:00:45;1.83;;;1.50;;
44862;SDS011;30597;49.628;10.850;2023-04-07T05:03:11;1.43;;;1.33;;
44862;SDS011;30597;49.628;10.850;2023-04-07T05:05:36;2.23;;;1.20;;
44862;SDS011;30597;49.628;10.850;2023-04-07T05:08:02;1.23;;;1.07;;
44862;SDS011;30597;49.628;10.850;2023-04-07T05:10:28;1.87;;;1.30;;
44862;SDS011;30597;49.628;10.850;2023-04-07T05:12:54;1.73;;;1.50;;
44862;SDS011;30597;49.628;10.850;2023-04-07T05:15:19;1.27;;;1.10;;
44862;SDS011;30597;49.628;10.850;2023-04-07T05:17:45;1.50;;;1.40;;
44862;SDS011;30597;49.628;10.850;2023-04-07T05:20:14;1.50;;;1.40;;
44862;SDS011;30597;49.628;10.850;2023-04-07T05:22:41;1.87;;;1.57;;
44862;SDS011;30597;49.628;10.850;2023-04-07T05:25:06;2.27;;;1.57;;
44862;SDS011;30597;49.628;10.850;2023-04-07T05:27:32;1.20;;;1.10;;
44862;SDS011;30597;49.628;10.850;2023-04-07T05:29:58;1.40;;;1.30;;
44862;SDS011;30597;49.628;10.850;2023-04-07T05:32:23;2.03;;;1.30;;
44862;SDS011;30597;49.628;10.850;2023-04-07T05:34:50;1.20;;;1.10;;
44862;SDS011;30597;49.628;10.850;2023-04-07T05:37:16;0.90;;;0.90;;
44862;SDS011;30597;49.628;10.850;2023-04-07T05:39:41;2.17;;;1.20;;
44862;SDS011;30597;49.628;10.850;2023-04-07T05:42:07;1.23;;;1.13;;
44862;SDS011;30597;49.628;10.850;2023-04-07T05:44:32;2.43;;;1.33;;
44862;SDS011;30597;49.628;10.850;2023-04-07T05:46:58;7.03;;;1.77;;
44862;SDS011;30597;49.628;10.850;2023-04-07T05:49:24;4.87;;;2.60;;
44862;SDS011;30597;49.628;10.850;2023-04-07T05:51:50;7.83;;;3.17;;
44862;SDS011;30597;49.628;10.850;2023-04-07T05:54:15;4.20;;;1.83;;
44862;SDS011;30597;49.628;10.850;2023-04-07T05:56:41;5.77;;;1.53;;
44862;SDS011;30597;49.628;10.850;2023-04-07T05:59:07;2.60;;;1.50;;
44862;SDS011;30597;49.628;10.850;2023-04-07T06:01:33;5.03;;;2.73;;
44862;SDS011;30597;49.628;10.850;2023-04-07T06:03:58;2.37;;;2.17;;
44862;SDS011;30597;49.628;10.850;2023-04-07T06:06:24;2.80;;;2.47;;
44862;SDS011;30597;49.628;10.850;2023-04-07T06:08:50;7.23;;;2.70;;
44862;SDS011;30597;49.628;10.850;2023-04-07T06:11:16;8.77;;;3.40;;
44862;SDS011;30597;49.628;10.850;2023-04-07T06:13:42;7.00;;;3.43;;
44862;SDS011;30597;49.628;10.850;2023-04-07T06:16:07;5.07;;;2.67;;
44862;SDS011;30597;49.628;10.850;2023-04-07T06:18:33;4.50;;;2.83;;
44862;SDS011;30597;49.628;10.850;2023-04-07T06:20:58;6.07;;;2.97;;
44862;SDS011;30597;49.628;10.850;2023-04-07T06:23:24;3.90;;;2.67;;
44862;SDS011;30597;49.628;10.850;2023-04-07T06:25:50;7.63;;;2.80;;
44862;SDS011;30597;49.628;10.850;2023-04-07T06:28:17;8.97;;;2.40;;
44862;SDS011;30597;49.628;10.850;2023-04-07T06:30:43;7.20;;;2.60;;
44862;SDS011;30597;49.628;10.850;2023-04-07T06:33:08;5.77;;;2.70;;
44862;SDS011;30597;49.628;10.850;2023-04-07T06:35:34;4.43;;;2.53;;
44862;SDS011;30597;49.628;10.850;2023-04-07T06:38:00;5.77;;;3.10;;
44862;SDS011;30597;49.628;10.850;2023-04-07T06:40:26;6.43;;;2.83;;
44862;SDS011;30597;49.628;10.850;2023-04-07T06:42:51;4.43;;;3.10;;
44862;SDS011;30597;49.628;10.850;2023-04-07T06:45:18;3.80;;;2.40;;
44862;SDS011;30597;49.628;10.850;2023-04-07T06:47:44;2.77;;;2.40;;
44862;SDS011;30597;49.628;10.850;2023-04-07T06:50:10;3.73;;;2.97;;
44862;SDS011;30597;49.628;10.850;2023-04-07T06:52:35;4.60;;;2.77;;
44862;SDS011;30597;49.628;10.850;2023-04-07T06:55:01;2.93;;;2.57;;
44862;SDS011;30597;49.628;10.850;2023-04-07T06:57:27;4.33;;;2.47;;
44862;SDS011;30597;49.628;10.850;2023-04-07T06:59:52;4.30;;;3.13;;
44862;SDS011;30597;49.628;10.850;2023-04-07T07:02:18;5.30;;;2.77;;
44862;SDS011;30597;49.628;10.850;2023-04-07T07:04:43;2.73;;;2.00;;
44862;SDS011;30597;49.628;10.850;2023-04-07T07:07:09;4.23;;;2.70;;
44862;SDS011;30597;49.628;10.850;2023-04-07T07:09:35;2.93;;;2.23;;
44862;SDS011;30597;49.628;10.850;2023-04-07T07:12:01;4.57;;;2.30;;
44862;SDS011;30597;49.628;10.850;2023-04-07T07:14:26;2.50;;;2.17;;
44862;SDS011;30597;49.628;10.850;2023-04-07T07:16:52;4.30;;;2.10;;
44862;SDS011;30597;49.628;10.850;2023-04-07T07:19:17;2.40;;;2.07;;
44862;SDS011;30597;49.628;10.850;2023-04-07T07:21:43;5.17;;;2.93;;
44862;SDS011;30597;49.628;10.850;2023-04-07T07:24:08;2.37;;;2.17;;
44862;SDS011;30597;49.628;10.850;2023-04-07T07:26:34;2.87;;;2.63;;
44862;SDS011;30597;49.628;10.850;2023-04-07T07:29:00;3.47;;;2.30;;
44862;SDS011;30597;49.628;10.850;2023-04-07T07:31:25;2.93;;;2.43;;
44862;SDS011;30597;49.628;10.850;2023-04-07T07:33:51;4.17;;;3.43;;
44862;SDS011;30597;49.628;10.850;2023-04-07T07:36:17;4.37;;;2.37;;
44862;SDS011;30597;49.628;10.850;2023-04-07T07:38:42;2.33;;;2.13;;
44862;SDS011;30597;49.628;10.850;2023-04-07T07:41:08;3.80;;;2.53;;
44862;SDS011;30597;49.628;10.850;2023-04-07T07:43:33;2.53;;;2.33;;
44862;SDS011;30597;49.628;10.850;2023-04-07T07:45:59;2.97;;;2.63;;
44862;SDS011;30597;49.628;10.850;2023-04-07T07:48:25;3.20;;;2.80;;
44862;SDS011;30597;49.628;10.850;2023-04-07T07:50:51;3.13;;;2.93;;
44862;SDS011;30597;49.628;10.850;2023-04-07T07:53:17;3.23;;;2.47;;
44862;SDS011;30597;49.628;10.850;2023-04-07T07:55:42;4.40;;;3.30;;
44862;SDS011;30597;49.628;10.850;2023-04-07T07:58:09;3.13;;;2.93;;
44862;SDS011;30597;49.628;10.850;2023-04-07T08:00:35;4.00;;;3.10;;
44862;SDS011;30597;49.628;10.850;2023-04-07T08:03:00;3.13;;;2.53;;
44862;SDS011;30597;49.628;10.850;2023-04-07T08:05:26;3.43;;;3.13;;
44862;SDS011;30597;49.628;10.850;2023-04-07T08:07:52;2.97;;;2.77;;
44862;SDS011;30597;49.628;10.850;2023-04-07T08:10:19;3.47;;;3.10;;
44862;SDS011;30597;49.628;10.850;2023-04-07T08:12:45;3.07;;;2.60;;
44862;SDS011;30597;49.628;10.850;2023-04-07T08:15:11;3.67;;;3.30;;
44862;SDS011;30597;49.628;10.850;2023-04-07T08:17:37;2.60;;;2.40;;
44862;SDS011;30597;49.628;10.850;2023-04-07T08:20:03;3.60;;;2.80;;
44862;SDS011;30597;49.628;10.850;2023-04-07T08:22:29;3.37;;;2.90;;
44862;SDS011;30597;49.628;10.850;2023-04-07T08:24:55;5.43;;;3.30;;
44862;SDS011;30597;49.628;10.850;2023-04-07T08:27:20;3.50;;;3.20;;
44862;SDS011;30597;49.628;10.850;2023-04-07T08:29:50;3.00;;;2.73;;
44862;SDS011;30597;49.628;10.850;2023-04-07T08:32:23;3.20;;;2.90;;
44862;SDS011;30597;49.628;10.850;2023-04-07T08:34:48;3.03;;;2.83;;
44862;SDS011;30597;49.628;10.850;2023-04-07T08:37:14;3.80;;;3.47;;
44862;SDS011;30597;49.628;10.850;2023-04-07T08:39:40;3.47;;;3.03;;
44862;SDS011;30597;49.628;10.850;2023-04-07T08:42:06;3.13;;;2.73;;
44862;SDS011;30597;49.628;10.850;2023-04-07T08:44:34;4.20;;;2.80;;
44862;SDS011;30597;49.628;10.850;2023-04-07T08:47:02;3.20;;;2.90;;
44862;SDS011;30597;49.628;10.850;2023-04-07T08:49:31;3.30;;;3.00;;
44862;SDS011;30597;49.628;10.850;2023-04-07T08:52:00;3.77;;;3.23;;
44862;SDS011;30597;49.628;10.850;2023-04-07T08:54:30;3.23;;;2.93;;
44862;SDS011;30597;49.628;10.850;2023-04-07T08:56:58;3.73;;;3.23;;
44862;SDS011;30597;49.628;10.850;2023-04-07T08:59:24;2.77;;;2.57;;
44862;SDS011;30597;49.628;10.850;2023-04-07T09:01:53;3.33;;;2.73;;
44862;SDS011;30597;49.628;10.850;2023-04-07T09:04:19;3.63;;;3.00;;
44862;SDS011;30597;49.628;10.850;2023-04-07T09:06:46;4.20;;;3.20;;
44862;SDS011;30597;49.628;10.850;2023-04-07T09:09:13;4.17;;;3.23;;
44862;SDS011;30597;49.628;10.850;2023-04-07T09:11:38;3.43;;;3.13;;
44862;SDS011;30597;49.628;10.850;2023-04-07T09:14:05;4.27;;;3.70;;
44862;SDS011;30597;49.628;10.850;2023-04-07T09:16:30;3.53;;;3.20;;
44862;SDS011;30597;49.628;10.850;2023-04-07T09:18:56;3.60;;;3.30;;
44862;SDS011;30597;49.628;10.850;2023-04-07T09:21:22;4.10;;;3.40;;
44862;SDS011;30597;49.628;10.850;2023-04-07T09:23:48;5.20;;;2.97;;
44862;SDS011;30597;49.628;10.850;2023-04-07T09:28:44;3.67;;;3.20;;
44862;SDS011;30597;49.628;10.850;2023-04-07T09:31:11;4.63;;;3.33;;
44862;SDS011;30597;49.628;10.850;2023-04-07T09:33:37;3.83;;;3.50;;
44862;SDS011;30597;49.628;10.850;2023-04-07T09:36:03;4.37;;;3.53;;
44862;SDS011;30597;49.628;10.850;2023-04-07T09:38:33;4.90;;;3.27;;
44862;SDS011;30597;49.628;10.850;2023-04-07T09:43:41;5.57;;;3.40;;
44862;SDS011;30597;49.628;10.850;2023-04-07T09:46:16;4.20;;;3.77;;
44862;SDS011;30597;49.628;10.850;2023-04-07T09:48:43;3.93;;;3.53;;
44862;SDS011;30597;49.628;10.850;2023-04-07T09:51:11;3.83;;;3.40;;
44862;SDS011;30597;49.628;10.850;2023-04-07T09:53:42;3.53;;;3.23;;
44862;SDS011;30597;49.628;10.850;2023-04-07T09:56:12;3.90;;;3.57;;
44862;SDS011;30597;49.628;10.850;2023-04-07T09:58:40;4.97;;;3.70;;
44862;SDS011;30597;49.628;10.850;2023-04-07T10:01:08;4.37;;;3.97;;
44862;SDS011;30597;49.628;10.850;2023-04-07T10:03:35;5.20;;;3.70;;
44862;SDS011;30597;49.628;10.850;2023-04-07T10:06:02;3.70;;;3.40;;
44862;SDS011;30597;49.628;10.850;2023-04-07T10:08:30;4.27;;;3.70;;
44862;SDS011;30597;49.628;10.850;2023-04-07T10:10:57;5.30;;;4.50;;
44862;SDS011;30597;49.628;10.850;2023-04-07T10:13:25;5.30;;;4.80;;
44862;SDS011;30597;49.628;10.850;2023-04-07T10:15:52;5.20;;;4.60;;
44862;SDS011;30597;49.628;10.850;2023-04-07T10:18:18;6.17;;;5.57;;
44862;SDS011;30597;49.628;10.850;2023-04-07T10:20:46;5.10;;;4.70;;
44862;SDS011;30597;49.628;10.850;2023-04-07T10:23:20;5.47;;;4.80;;
44862;SDS011;30597;49.628;10.850;2023-04-07T10:25:51;5.37;;;4.90;;
44862;SDS011;30597;49.628;10.850;2023-04-07T10:28:19;6.53;;;5.57;;
44862;SDS011;30597;49.628;10.850;2023-04-07T10:30:48;7.17;;;4.57;;
44862;SDS011;30597;49.628;10.850;2023-04-07T10:33:15;5.07;;;4.33;;
44862;SDS011;30597;49.628;10.850;2023-04-07T10:36:04;5.27;;;4.77;;
44862;SDS011;30597;49.628;10.850;2023-04-07T10:38:29;5.70;;;5.10;;
44862;SDS011;30597;49.628;10.850;2023-04-07T10:40:55;5.10;;;4.60;;
44862;SDS011;30597;49.628;10.850;2023-04-07T10:43:37;5.03;;;4.20;;
44862;SDS011;30597;49.628;10.850;2023-04-07T10:46:04;7.73;;;5.50;;
44862;SDS011;30597;49.628;10.850;2023-04-07T10:48:30;8.43;;;6.07;;
44862;SDS011;30597;49.628;10.850;2023-04-07T10:53:28;14.67;;;11.80;;
44862;SDS011;30597;49.628;10.850;2023-04-07T10:55:55;17.53;;;10.97;;
44862;SDS011;30597;49.628;10.850;2023-04-07T10:58:23;20.80;;;10.40;;
44862;SDS011;30597;49.628;10.850;2023-04-07T11:03:28;11.63;;;6.43;;
44862;SDS011;30597;49.628;10.850;2023-04-07T11:06:11;6.63;;;5.80;;
44862;SDS011;30597;49.628;10.850;2023-04-07T11:08:41;5.00;;;4.50;;
44862;SDS011;30597;49.628;10.850;2023-04-07T11:11:09;6.73;;;4.40;;
44862;SDS011;30597;49.628;10.850;2023-04-07T11:13:43;4.10;;;3.67;;
44862;SDS011;30597;49.628;10.850;2023-04-07T11:16:13;4.00;;;3.60;;
44862;SDS011;30597;49.628;10.850;2023-04-07T11:18:40;3.40;;;2.70;;
44862;SDS011;30597;49.628;10.850;2023-04-07T11:21:07;2.73;;;2.53;;
44862;SDS011;30597;49.628;10.850;2023-04-07T11:23:36;3.03;;;2.17;;
44862;SDS011;30597;49.628;10.850;2023-04-07T11:26:03;1.67;;;1.57;;
44862;SDS011;30597;49.628;10.850;2023-04-07T11:28:29;1.93;;;1.77;;
44862;SDS011;30597;49.628;10.850;2023-04-07T11:30:55;1.33;;;1.23;;
44862;SDS011;30597;49.628;10.850;2023-04-07T11:33:26;1.20;;;1.10;;
44862;SDS011;30597;49.628;10.850;2023-04-07T11:35:59;1.30;;;1.00;;
44862;SDS011;30597;49.628;10.850;2023-04-07T11:38:27;1.30;;;1.10;;
44862;SDS011;30597;49.628;10.850;2023-04-07T11:40:55;1.20;;;1.10;;
44862;SDS011;30597;49.628;10.850;2023-04-07T11:46:06;0.90;;;0.80;;
44862;SDS011;30597;49.628;10.850;2023-04-07T11:48:37;4.00;;;1.13;;
44862;SDS011;30597;49.628;10.850;2023-04-07T11:51:04;1.53;;;1.00;;
44862;SDS011;30597;49.628;10.850;2023-04-07T11:53:31;1.87;;;0.80;;
44862;SDS011;30597;49.628;10.850;2023-04-07T11:56:03;0.80;;;0.60;;
44862;SDS011;30597;49.628;10.850;2023-04-07T11:58:30;0.90;;;0.80;;
44862;SDS011;30597;49.628;10.850;2023-04-07T12:00:57;1.03;;;0.73;;
44862;SDS011;30597;49.628;10.850;2023-04-07T12:03:28;1.40;;;0.67;;
44862;SDS011;30597;49.628;10.850;2023-04-07T12:05:54;2.57;;;0.87;;
44862;SDS011;30597;49.628;10.850;2023-04-07T12:08:20;2.20;;;1.00;;
44862;SDS011;30597;49.628;10.850;2023-04-07T12:10:46;1.67;;;1.07;;
44862;SDS011;30597;49.628;10.850;2023-04-07T12:13:12;1.60;;;0.67;;
44862;SDS011;30597;49.628;10.850;2023-04-07T12:15:38;0.70;;;0.60;;
44862;SDS011;30597;49.628;10.850;2023-04-07T12:18:04;0.83;;;0.60;;
44862;SDS011;30597;49.628;10.850;2023-04-07T12:20:30;0.93;;;0.60;;
44862;SDS011;30597;49.628;10.850;2023-04-07T12:22:56;0.90;;;0.70;;
44862;SDS011;30597;49.628;10.850;2023-04-07T12:25:22;0.87;;;0.70;;
44862;SDS011;30597;49.628;10.850;2023-04-07T12:27:48;1.40;;;0.60;;
44862;SDS011;30597;49.628;10.850;2023-04-07T12:30:13;1.27;;;0.50;;
44862;SDS011;30597;49.628;10.850;2023-04-07T12:32:39;1.20;;;0.77;;
44862;SDS011;30597;49.628;10.850;2023-04-07T12:35:05;0.80;;;0.60;;
44862;SDS011;30597;49.628;10.850;2023-04-07T12:37:31;0.77;;;0.53;;
44862;SDS011;30597;49.628;10.850;2023-04-07T12:39:57;0.90;;;0.60;;
44862;SDS011;30597;49.628;10.850;2023-04-07T12:42:23;1.23;;;0.50;;
44862;SDS011;30597;49.628;10.850;2023-04-07T12:44:48;1.00;;;0.70;;
44862;SDS011;30597;49.628;10.850;2023-04-07T12:47:14;1.93;;;1.00;;
44862;SDS011;30597;49.628;10.850;2023-04-07T12:49:39;1.10;;;0.73;;
44862;SDS011;30597;49.628;10.850;2023-04-07T12:52:05;0.90;;;0.70;;
44862;SDS011;30597;49.628;10.850;2023-04-07T12:54:31;1.10;;;0.80;;
44862;SDS011;30597;49.628;10.850;2023-04-07T12:56:57;0.87;;;0.50;;
44862;SDS011;30597;49.628;10.850;2023-04-07T12:59:23;0.87;;;0.70;;
44862;SDS011;30597;49.628;10.850;2023-04-07T13:01:49;1.57;;;0.50;;
44862;SDS011;30597;49.628;10.850;2023-04-07T13:04:15;0.80;;;0.50;;
44862;SDS011;30597;49.628;10.850;2023-04-07T13:06:41;0.80;;;0.50;;
44862;SDS011;30597;49.628;10.850;2023-04-07T13:09:08;5.83;;;0.60;;
44862;SDS011;30597;49.628;10.850;2023-04-07T13:11:37;0.80;;;0.70;;
44862;SDS011;30597;49.628;10.850;2023-04-07T13:14:02;0.80;;;0.50;;
44862;SDS011;30597;49.628;10.850;2023-04-07T13:16:28;0.90;;;0.70;;
44862;SDS011;30597;49.628;10.850;2023-04-07T13:18:54;1.40;;;0.60;;
44862;SDS011;30597;49.628;10.850;2023-04-07T13:21:19;0.87;;;0.60;;
44862;SDS011;30597;49.628;10.850;2023-04-07T13:23:46;1.63;;;0.60;;
44862;SDS011;30597;49.628;10.850;2023-04-07T13:26:14;0.90;;;0.53;;
44862;SDS011;30597;49.628;10.850;2023-04-07T13:28:40;0.80;;;0.60;;
44862;SDS011;30597;49.628;10.850;2023-04-07T13:31:06;0.80;;;0.57;;
44862;SDS011;30597;49.628;10.850;2023-04-07T13:33:33;0.60;;;0.40;;
44862;SDS011;30597;49.628;10.850;2023-04-07T13:35:58;1.40;;;0.63;;
44862;SDS011;30597;49.628;10.850;2023-04-07T13:38:24;1.20;;;0.60;;
44862;SDS011;30597;49.628;10.850;2023-04-07T13:40:50;0.90;;;0.53;;
44862;SDS011;30597;49.628;10.850;2023-04-07T13:43:16;0.70;;;0.50;;
44862;SDS011;30597;49.628;10.850;2023-04-07T13:45:42;0.70;;;0.50;;
44862;SDS011;30597;49.628;10.850;2023-04-07T13:48:08;0.90;;;0.60;;
44862;SDS011;30597;49.628;10.850;2023-04-07T13:50:35;0.93;;;0.50;;
44862;SDS011;30597;49.628;10.850;2023-04-07T13:53:01;1.07;;;0.97;;
44862;SDS011;30597;49.628;10.850;2023-04-07T13:55:26;2.70;;;1.90;;
44862;SDS011;30597;49.628;10.850;2023-04-07T13:57:52;2.60;;;2.10;;
44862;SDS011;30597;49.628;10.850;2023-04-07T14:00:18;2.33;;;1.70;;
44862;SDS011;30597;49.628;10.850;2023-04-07T14:02:43;2.20;;;1.63;;
44862;SDS011;30597;49.628;10.850;2023-04-07T14:05:09;2.30;;;1.63;;
44862;SDS011;30597;49.628;10.850;2023-04-07T14:07:35;1.50;;;1.20;;
44862;SDS011;30597;49.628;10.850;2023-04-07T14:10:01;1.93;;;1.13;;
44862;SDS011;30597;49.628;10.850;2023-04-07T14:12:27;1.87;;;1.10;;
44862;SDS011;30597;49.628;10.850;2023-04-07T14:14:52;1.10;;;0.90;;
44862;SDS011;30597;49.628;10.850;2023-04-07T14:17:18;1.30;;;0.80;;
44862;SDS011;30597;49.628;10.850;2023-04-07T14:19:44;1.40;;;1.20;;
44862;SDS011;30597;49.628;10.850;2023-04-07T14:22:10;2.20;;;1.00;;
44862;SDS011;30597;49.628;10.850;2023-04-07T14:24:36;0.93;;;0.70;;
44862;SDS011;30597;49.628;10.850;2023-04-07T14:27:02;1.00;;;0.80;;
44862;SDS011;30597;49.628;10.850;2023-04-07T14:29:28;2.00;;;1.80;;
44862;SDS011;30597;49.628;10.850;2023-04-07T14:31:53;1.27;;;1.03;;
44862;SDS011;30597;49.628;10.850;2023-04-07T14:34:19;1.40;;;1.10;;
44862;SDS011;30597;49.628;10.850;2023-04-07T14:36:54;1.70;;;1.20;;
44862;SDS011;30597;49.628;10.850;2023-04-07T14:39:21;1.40;;;1.17;;
44862;SDS011;30597;49.628;10.850;2023-04-07T14:41:48;1.87;;;1.00;;
44862;SDS011;30597;49.628;10.850;2023-04-07T14:44:14;1.20;;;0.93;;
44862;SDS011;30597;49.628;10.850;2023-04-07T14:46:40;1.10;;;0.87;;
44862;SDS011;30597;49.628;10.850;2023-04-07T14:49:06;1.10;;;0.90;;
44862;SDS011;30597;49.628;10.850;2023-04-07T14:51:32;1.37;;;1.10;;